Etusivu
METAR-TAF:

METAR-TAF

Lentoasemat :

Sétif, Algeria

Leveyspiiri: 36-11N, Pituuspiiri: 005-25E, korkeus merenpinnasta: 1038 m

Tämänhetkinen sää

Tämä raportti tehtiin 25 minuuttia sitten, kello 22.00 UTC
Tuuli 3 kn pohjoisesta/koillisesta
Lämpötila 18°C
Kosteus 24%
Ilmanpaine 1023 hPa
Näkyvyys 10 km tai enemmän
ei pilviä alle 1500 m:ssä eikä cumulonimbus-pilviä

METAR: DAAS 052200Z 03003KT CAVOK 18/M03 Q1023

Aika: 23:25 (22:25 UTC)

Sääennuste

Tämä raportti tehtiin 5 tuntia ja 25 minuuttia sitten, kello 17.00 UTC
Ennuste voimassa 05. päivästä klo 18 UTC - 06. päivään klo 18 UTC
Tuuli 8 kn pohjoisen/luoteesta
Näkyvyys 10 km tai enemmän
ei pilviä alle 1500 m:ssä eikä cumulonimbus-pilviä

TAF: DAAS 051700Z 0518/0618 34008KT CAVOK

Säähavainnot ja -ennusteet yli 4000 lentoasemalta (METAR- ja TAF-raportit).

Käytössä olevat sääasemat on merkitty karttaan keltaisilla ja punaisilla pisteillä.

Aseta hiiri pisteen päälle nähdäksesi sääaseman nimen.

Klikkaa sitten nähdäksesi säähavainnot ja -ennusteet.

Kartan vaihtaminen: klikkaa mustalla rastilla varustettuja vihreitä pisteitä, niin voit zoomata sisään; viivalla varustettua vihreää pistettä, niin voit zoomata ulos tai vihreitä nuolia, niin pääset viereisille kartoille.


METAR-TAF: